Time;durP1;ratioP1;P1;durP2;ratioP2;P2;SDS_P1;SDS_P2;PMS_P1;PMS_P2;Temp;Humidity;BMP_temperature;BMP_pressure;BME280_temperature;BME280_humidity;BME280_pressure;Samples;Min_cycle;Max_cycle;Signal;HPM_P1;HPM_P2
2023/10/31 00:00:28;;;;;;;;;;;;;;;;;;2202800;67;1612;-24
2023/10/31 00:02:58;;;;;;;;;;;;;;;;;;2202617;59;2395;-24
2023/10/31 00:05:28;;;;;;;;;;;;;;;;;;2202699;67;1403;-24
2023/10/31 00:07:59;;;;;;;;;;;;;;;;;;2203267;67;1924;-24
2023/10/31 00:10:29;;;;;;;;;;;;;;;;;;2198380;59;2380;-24
2023/10/31 00:12:59;;;;;;;;;;;;;;;;;;2203075;59;1428;-24
2023/10/31 00:15:30;;;;;;;;;;;;;;;;;;2199075;67;1966;-24
2023/10/31 00:18:00;;;;;;;;;;;;;;;;;;2203371;67;1701;-24
2023/10/31 00:20:30;;;;;;;;;;;;;;;;;;2199465;67;1234;-24
2023/10/31 00:23:01;;;;;;;;;;;;;;;;;;2203292;67;1352;-24
2023/10/31 00:25:31;;;;;;;;;;;;;;;;;;2202239;59;2417;-23
2023/10/31 00:28:01;;;;;;;;;;;;;;;;;;2203114;59;2046;-24
2023/10/31 00:30:31;;;;;;;;;;;;;;;;;;2202489;59;2279;-24
2023/10/31 00:33:01;;;;;;;;;;;;;;;;;;2203214;59;2433;-24
2023/10/31 00:35:32;;;;;;;;;;;;;;;;;;2196382;67;1830;-24
2023/10/31 00:38:02;;;;;;;;;;;;;;;;;;2203414;67;1189;-23
2023/10/31 00:40:32;;;;;;;;;;;;;;;;;;2201937;59;1344;-23
2023/10/31 00:43:02;;;;;;;;;;;;;;;;;;2203753;67;1577;-24
2023/10/31 00:45:33;;;;;;;;;;;;;;;;;;2203348;59;1435;-23
2023/10/31 00:48:03;;;;;;;;;;;;;;;;;;2200980;59;1933;-24
2023/10/31 00:50:33;;;;;;;;;;;;;;;;;;2198233;59;1908;-23
2023/10/31 00:53:03;;;;;;;;;;;;;;;;;;2203760;67;1294;-24
2023/10/31 00:55:34;;;;;;;;;;;;;;;;;;2203071;67;1880;-24
2023/10/31 00:58:04;;;;;;;;;;;;;;;;;;2200560;59;1302;-24
2023/10/31 01:00:37;;;;;;;;;;;;;;;;;;2202777;67;1458;-24
2023/10/31 01:03:07;;;;;;;;;;;;;;;;;;2203779;59;2429;-24
2023/10/31 01:05:37;;;;;;;;;;;;;;;;;;2203361;67;1279;-24
2023/10/31 01:08:07;;;;;;;;;;;;;;;;;;2199757;67;1949;-24
2023/10/31 01:10:37;;;;;;;;;;;;;;;;;;2202865;67;1214;-23
2023/10/31 01:13:08;;;;;;;;;;;;;;;;;;2203738;59;1393;-23
2023/10/31 01:15:38;;;;;;;;;;;;;;;;;;2199675;67;1617;-24
2023/10/31 01:18:08;;;;;;;;;;;;;;;;;;2200007;67;1425;-24
2023/10/31 01:20:38;;;;;;;;;;;;;;;;;;2202963;67;1617;-24
2023/10/31 01:23:09;;;;;;;;;;;;;;;;;;2203714;67;1721;-24
2023/10/31 01:25:39;;;;;;;;;;;;;;;;;;2202877;67;2152;-24
2023/10/31 01:28:09;;;;;;;;;;;;;;;;;;2204091;59;1936;-24
2023/10/31 01:30:39;;;;;;;;;;;;;;;;;;2198613;59;2315;-23
2023/10/31 01:33:10;;;;;;;;;;;;;;;;;;2203487;67;2972;-22
2023/10/31 01:35:40;;;;;;;;;;;;;;;;;;2203095;67;1591;-23
2023/10/31 01:38:10;;;;;;;;;;;;;;;;;;2197619;67;1482;-23
2023/10/31 01:40:41;;;;;;;;;;;;;;;;;;2202994;59;1563;-23
2023/10/31 01:43:11;;;;;;;;;;;;;;;;;;2199765;67;1716;-23
2023/10/31 01:45:41;;;;;;;;;;;;;;;;;;2202912;59;1720;-23
2023/10/31 01:48:11;;;;;;;;;;;;;;;;;;2200609;67;2003;-24
2023/10/31 01:50:41;;;;;;;;;;;;;;;;;;2202630;67;1607;-24
2023/10/31 01:53:12;;;;;;;;;;;;;;;;;;2203349;67;1193;-24
2023/10/31 01:55:42;;;;;;;;;;;;;;;;;;2198919;67;1850;-24
2023/10/31 01:58:14;;;;;;;;;;;;;;;;;;2200487;67;1948;-23
2023/10/31 02:00:44;;;;;;;;;;;;;;;;;;2198721;67;1574;-23
2023/10/31 02:03:14;;;;;;;;;;;;;;;;;;2200318;59;2423;-23
2023/10/31 02:05:45;;;;;;;;;;;;;;;;;;2199390;67;1991;-23
2023/10/31 02:08:15;;;;;;;;;;;;;;;;;;2200266;67;1943;-24
2023/10/31 02:10:46;;;;;;;;;;;;;;;;;;2202858;67;1693;-23
2023/10/31 02:13:17;;;;;;;;;;;;;;;;;;2203932;67;1540;-23
2023/10/31 02:15:47;;;;;;;;;;;;;;;;;;2202467;67;2065;-24
2023/10/31 02:18:18;;;;;;;;;;;;;;;;;;2203396;59;2293;-23
2023/10/31 02:20:48;;;;;;;;;;;;;;;;;;2202448;67;1514;-24
2023/10/31 02:23:18;;;;;;;;;;;;;;;;;;2203527;67;1194;-24
2023/10/31 02:25:49;;;;;;;;;;;;;;;;;;2202659;67;1742;-24
2023/10/31 02:28:19;;;;;;;;;;;;;;;;;;2203685;67;1932;-24
2023/10/31 02:30:49;;;;;;;;;;;;;;;;;;2202439;67;2407;-23
2023/10/31 02:33:19;;;;;;;;;;;;;;;;;;2203612;59;2169;-24
2023/10/31 02:35:49;;;;;;;;;;;;;;;;;;2202575;67;2003;-24
2023/10/31 02:38:20;;;;;;;;;;;;;;;;;;2203814;67;1261;-24
2023/10/31 02:40:50;;;;;;;;;;;;;;;;;;2202397;59;1555;-23
2023/10/31 02:43:20;;;;;;;;;;;;;;;;;;2202933;59;1672;-23
2023/10/31 02:45:50;;;;;;;;;;;;;;;;;;2202788;67;1665;-23
2023/10/31 02:48:21;;;;;;;;;;;;;;;;;;2203643;67;2005;-23
2023/10/31 02:50:51;;;;;;;;;;;;;;;;;;2202472;59;1385;-24
2023/10/31 02:53:21;;;;;;;;;;;;;;;;;;2203653;59;1286;-24
2023/10/31 02:55:51;;;;;;;;;;;;;;;;;;2202863;67;1610;-24
2023/10/31 02:58:21;;;;;;;;;;;;;;;;;;2203823;67;1240;-24
2023/10/31 03:00:52;;;;;;;;;;;;;;;;;;2198610;67;1423;-23
2023/10/31 03:03:22;;;;;;;;;;;;;;;;;;2203426;59;2714;-25
2023/10/31 03:05:52;;;;;;;;;;;;;;;;;;2200035;67;1436;-23
2023/10/31 03:08:22;;;;;;;;;;;;;;;;;;2203429;67;1947;-24
2023/10/31 03:10:53;;;;;;;;;;;;;;;;;;2198123;67;2027;-23
2023/10/31 03:13:23;;;;;;;;;;;;;;;;;;2203434;67;1663;-23
2023/10/31 03:15:53;;;;;;;;;;;;;;;;;;2202617;67;1551;-23
2023/10/31 03:18:23;;;;;;;;;;;;;;;;;;2203486;67;1309;-23
2023/10/31 03:20:53;;;;;;;;;;;;;;;;;;2202657;67;1659;-23
2023/10/31 03:23:24;;;;;;;;;;;;;;;;;;2199524;67;1580;-24
2023/10/31 03:25:54;;;;;;;;;;;;;;;;;;2199032;67;1747;-24
2023/10/31 03:28:24;;;;;;;;;;;;;;;;;;2199973;59;2000;-24
2023/10/31 03:30:54;;;;;;;;;;;;;;;;;;2202365;67;2250;-23
2023/10/31 03:33:25;;;;;;;;;;;;;;;;;;2199708;67;2409;-22
2023/10/31 03:35:55;;;;;;;;;;;;;;;;;;2199247;67;1366;-24
2023/10/31 03:38:25;;;;;;;;;;;;;;;;;;2203771;67;1647;-23
2023/10/31 03:40:55;;;;;;;;;;;;;;;;;;2198328;59;1483;-24
2023/10/31 03:43:26;;;;;;;;;;;;;;;;;;2203239;59;1328;-24
2023/10/31 03:45:56;;;;;;;;;;;;;;;;;;2202545;59;2121;-22
2023/10/31 03:48:26;;;;;;;;;;;;;;;;;;2196851;67;1961;-23
2023/10/31 03:50:56;;;;;;;;;;;;;;;;;;2202143;59;1771;-22
2023/10/31 03:53:26;;;;;;;;;;;;;;;;;;2199650;60;1520;-24
2023/10/31 03:55:58;;;;;;;;;;;;;;;;;;2199729;67;1463;-23
2023/10/31 03:58:28;;;;;;;;;;;;;;;;;;2203482;67;1466;-24
2023/10/31 04:00:59;;;;;;;;;;;;;;;;;;2202818;67;1680;-23
2023/10/31 04:03:29;;;;;;;;;;;;;;;;;;2200230;59;2447;-24
2023/10/31 04:05:59;;;;;;;;;;;;;;;;;;2202581;67;1595;-23
2023/10/31 04:08:29;;;;;;;;;;;;;;;;;;2203348;67;1953;-24
2023/10/31 04:11:00;;;;;;;;;;;;;;;;;;2202314;59;2096;-24
2023/10/31 04:13:30;;;;;;;;;;;;;;;;;;2203570;59;2072;-22
2023/10/31 04:16:00;;;;;;;;;;;;;;;;;;2199403;67;1669;-23
2023/10/31 04:18:30;;;;;;;;;;;;;;;;;;2200639;67;1769;-23
2023/10/31 04:21:00;;;;;;;;;;;;;;;;;;2203220;67;1524;-23
2023/10/31 04:23:31;;;;;;;;;;;;;;;;;;2203852;67;1545;-23
2023/10/31 04:26:01;;;;;;;;;;;;;;;;;;2199900;67;1780;-23
2023/10/31 04:28:31;;;;;;;;;;;;;;;;;;2203214;59;1949;-23
2023/10/31 04:31:01;;;;;;;;;;;;;;;;;;2203058;59;2198;-23
2023/10/31 04:33:32;;;;;;;;;;;;;;;;;;2200617;59;2441;-23
2023/10/31 04:36:02;;;;;;;;;;;;;;;;;;2203036;59;2095;-23
2023/10/31 04:38:32;;;;;;;;;;;;;;;;;;2203880;59;2314;-23
2023/10/31 04:41:03;;;;;;;;;;;;;;;;;;2202240;59;1491;-23
2023/10/31 04:43:33;;;;;;;;;;;;;;;;;;2203968;59;1766;-23
2023/10/31 04:46:03;;;;;;;;;;;;;;;;;;2200030;67;1554;-24
2023/10/31 04:48:33;;;;;;;;;;;;;;;;;;2203003;59;2234;-24
2023/10/31 04:51:04;;;;;;;;;;;;;;;;;;2198971;59;2155;-22
2023/10/31 04:53:34;;;;;;;;;;;;;;;;;;2203331;59;2664;-22
2023/10/31 04:56:11;;;;;;;;;;;;;;;;;;2203054;59;2484;-23
2023/10/31 04:58:42;;;;;;;;;;;;;;;;;;2203020;59;2402;-24
2023/10/31 05:01:13;;;;;;;;;;;;;;;;;;2200819;67;1336;-23
2023/10/31 05:03:43;;;;;;;;;;;;;;;;;;2202767;59;2419;-23
2023/10/31 05:06:13;;;;;;;;;;;;;;;;;;2204178;67;1253;-23
2023/10/31 05:08:43;;;;;;;;;;;;;;;;;;2203435;67;1953;-23
2023/10/31 05:11:16;;;;;;;;;;;;;;;;;;2200522;60;1849;-23
2023/10/31 05:13:46;;;;;;;;;;;;;;;;;;2199272;67;1431;-22
2023/10/31 05:16:16;;;;;;;;;;;;;;;;;;2201019;67;1283;-23
2023/10/31 05:18:46;;;;;;;;;;;;;;;;;;2200039;67;1202;-22
2023/10/31 05:21:23;;;;;;;;;;;;;;;;;;2200469;67;1445;-21
2023/10/31 05:23:53;;;;;;;;;;;;;;;;;;2203423;67;1373;-23
2023/10/31 05:26:24;;;;;;;;;;;;;;;;;;2204234;67;1933;-23
2023/10/31 05:28:54;;;;;;;;;;;;;;;;;;2203209;59;2244;-23
2023/10/31 05:31:24;;;;;;;;;;;;;;;;;;2204508;59;1355;-23
2023/10/31 05:33:54;;;;;;;;;;;;;;;;;;2203454;59;2573;-23
2023/10/31 05:36:25;;;;;;;;;;;;;;;;;;2201003;59;1387;-23
2023/10/31 05:38:55;;;;;;;;;;;;;;;;;;2203652;59;1957;-23
2023/10/31 05:41:26;;;;;;;;;;;;;;;;;;2204945;59;2240;-20
2023/10/31 05:43:56;;;;;;;;;;;;;;;;;;2196940;59;1519;-20
2023/10/31 05:46:26;;;;;;;;;;;;;;;;;;2200897;59;1928;-20
2023/10/31 05:48:56;;;;;;;;;;;;;;;;;;2199957;59;1598;-20
2023/10/31 05:51:29;;;;;;;;;;;;;;;;;;2203409;59;1828;-20
2023/10/31 05:53:59;;;;;;;;;;;;;;;;;;2197867;59;1620;-20
2023/10/31 05:56:29;;;;;;;;;;;;;;;;;;2200038;67;1724;-20
2023/10/31 05:59:00;;;;;;;;;;;;;;;;;;2199055;67;1511;-20
2023/10/31 06:01:30;;;;;;;;;;;;;;;;;;2203469;67;1698;-20
2023/10/31 06:04:00;;;;;;;;;;;;;;;;;;2197897;59;2397;-20
2023/10/31 06:06:32;;;;;;;;;;;;;;;;;;2196787;67;2016;-21
2023/10/31 06:09:03;;;;;;;;;;;;;;;;;;2202048;59;1618;-20
2023/10/31 06:11:33;;;;;;;;;;;;;;;;;;2203432;67;1546;-20
2023/10/31 06:14:05;;;;;;;;;;;;;;;;;;2199131;67;1580;-21
2023/10/31 06:16:41;;;;;;;;;;;;;;;;;;2199326;59;1549;-20
2023/10/31 06:19:12;;;;;;;;;;;;;;;;;;2202109;67;1636;-21
2023/10/31 06:21:42;;;;;;;;;;;;;;;;;;2202696;67;1540;-20
2023/10/31 06:24:12;;;;;;;;;;;;;;;;;;2201994;59;2137;-20
2023/10/31 06:26:43;;;;;;;;;;;;;;;;;;2203538;59;2019;-20
2023/10/31 06:29:13;;;;;;;;;;;;;;;;;;2202880;59;2213;-20
2023/10/31 06:31:43;;;;;;;;;;;;;;;;;;2202064;59;2339;-20
2023/10/31 06:34:13;;;;;;;;;;;;;;;;;;2201497;67;1835;-20
2023/10/31 06:36:44;;;;;;;;;;;;;;;;;;2202997;67;1633;-20
2023/10/31 06:39:14;;;;;;;;;;;;;;;;;;2200505;67;2444;-21
2023/10/31 06:41:44;;;;;;;;;;;;;;;;;;2202718;59;1693;-20
2023/10/31 06:44:14;;;;;;;;;;;;;;;;;;2198784;59;1804;-20
2023/10/31 06:46:44;;;;;;;;;;;;;;;;;;2202742;67;2507;-20
2023/10/31 06:49:15;;;;;;;;;;;;;;;;;;2202107;59;2504;-21
2023/10/31 06:51:45;;;;;;;;;;;;;;;;;;2201966;67;2441;-21
2023/10/31 06:54:15;;;;;;;;;;;;;;;;;;2202456;67;1495;-20
2023/10/31 06:56:46;;;;;;;;;;;;;;;;;;2201813;67;1785;-21
2023/10/31 06:59:17;;;;;;;;;;;;;;;;;;2201502;67;1701;-21
2023/10/31 07:01:47;;;;;;;;;;;;;;;;;;2200576;59;2518;-20
2023/10/31 07:04:17;;;;;;;;;;;;;;;;;;2201450;67;2609;-21
2023/10/31 07:06:47;;;;;;;;;;;;;;;;;;2200926;59;2232;-21
2023/10/31 07:09:18;;;;;;;;;;;;;;;;;;2202059;59;2970;-20
2023/10/31 07:11:48;;;;;;;;;;;;;;;;;;2201328;67;1628;-21
2023/10/31 07:14:18;;;;;;;;;;;;;;;;;;2198529;67;1747;-22
2023/10/31 07:16:48;;;;;;;;;;;;;;;;;;2201572;59;1609;-20
2023/10/31 07:19:19;;;;;;;;;;;;;;;;;;2202056;59;2304;-21
2023/10/31 07:21:49;;;;;;;;;;;;;;;;;;2198756;67;1783;-20
2023/10/31 07:24:20;;;;;;;;;;;;;;;;;;2202767;59;1412;-21
2023/10/31 07:26:51;;;;;;;;;;;;;;;;;;2196309;59;2085;-21
2023/10/31 07:29:21;;;;;;;;;;;;;;;;;;2203520;59;2655;-20
2023/10/31 07:31:51;;;;;;;;;;;;;;;;;;2202339;59;2301;-21
2023/10/31 07:34:22;;;;;;;;;;;;;;;;;;2202988;59;2089;-21
2023/10/31 07:36:52;;;;;;;;;;;;;;;;;;2201294;59;3361;-21
2023/10/31 07:39:22;;;;;;;;;;;;;;;;;;2202270;59;2062;-21
2023/10/31 07:41:53;;;;;;;;;;;;;;;;;;2201063;59;1527;-21
2023/10/31 07:44:24;;;;;;;;;;;;;;;;;;2198524;59;2476;-21
2023/10/31 07:46:54;;;;;;;;;;;;;;;;;;2197654;59;1988;-21
2023/10/31 07:49:24;;;;;;;;;;;;;;;;;;2204272;59;1320;-21
2023/10/31 07:51:54;;;;;;;;;;;;;;;;;;2202812;59;1528;-21
2023/10/31 07:54:25;;;;;;;;;;;;;;;;;;2204827;67;1096;-21
2023/10/31 07:56:55;;;;;;;;;;;;;;;;;;2203616;67;1528;-21
2023/10/31 07:59:25;;;;;;;;;;;;;;;;;;2204039;59;1656;-21
2023/10/31 08:01:55;;;;;;;;;;;;;;;;;;2199689;59;2358;-20
2023/10/31 08:04:26;;;;;;;;;;;;;;;;;;2204437;67;2112;-21
2023/10/31 08:06:56;;;;;;;;;;;;;;;;;;2202527;67;1941;-21
2023/10/31 08:09:26;;;;;;;;;;;;;;;;;;2200130;59;1412;-23
2023/10/31 08:11:57;;;;;;;;;;;;;;;;;;2203473;67;1698;-23
2023/10/31 08:14:27;;;;;;;;;;;;;;;;;;2204264;67;1405;-23
2023/10/31 08:16:57;;;;;;;;;;;;;;;;;;2202488;59;2111;-22
2023/10/31 08:19:27;;;;;;;;;;;;;;;;;;2204661;67;2094;-20
2023/10/31 08:21:57;;;;;;;;;;;;;;;;;;2203562;59;2170;-21
2023/10/31 08:24:28;;;;;;;;;;;;;;;;;;2205031;67;1370;-21
2023/10/31 08:26:58;;;;;;;;;;;;;;;;;;2203562;59;1930;-21
2023/10/31 08:29:28;;;;;;;;;;;;;;;;;;2204036;59;2243;-20
2023/10/31 08:31:59;;;;;;;;;;;;;;;;;;2203375;59;2266;-21
2023/10/31 08:34:29;;;;;;;;;;;;;;;;;;2204168;67;1897;-20
2023/10/31 08:37:00;;;;;;;;;;;;;;;;;;2200331;59;2217;-20
2023/10/31 08:39:30;;;;;;;;;;;;;;;;;;2201531;59;2179;-23
2023/10/31 08:42:01;;;;;;;;;;;;;;;;;;2201906;59;1306;-22
2023/10/31 08:44:33;;;;;;;;;;;;;;;;;;2203672;59;1689;-23
2023/10/31 08:47:03;;;;;;;;;;;;;;;;;;2200006;59;2466;-20
2023/10/31 08:49:34;;;;;;;;;;;;;;;;;;2200699;59;4040;-21
2023/10/31 08:52:04;;;;;;;;;;;;;;;;;;2201899;59;3453;-21
2023/10/31 08:54:34;;;;;;;;;;;;;;;;;;2202686;67;4190;-20
2023/10/31 08:57:04;;;;;;;;;;;;;;;;;;2201298;59;2665;-21
2023/10/31 08:59:35;;;;;;;;;;;;;;;;;;2203252;67;2475;-20
2023/10/31 09:02:05;;;;;;;;;;;;;;;;;;2201398;59;2814;-21
2023/10/31 09:04:35;;;;;;;;;;;;;;;;;;2198138;59;2562;-20
2023/10/31 09:07:06;;;;;;;;;;;;;;;;;;2196251;67;2696;-20
2023/10/31 09:09:36;;;;;;;;;;;;;;;;;;2201780;59;4071;-23
2023/10/31 09:12:06;;;;;;;;;;;;;;;;;;2201891;67;3756;-23
2023/10/31 09:14:37;;;;;;;;;;;;;;;;;;2196310;59;3823;-22
2023/10/31 09:17:07;;;;;;;;;;;;;;;;;;2201015;59;4133;-22
2023/10/31 09:19:38;;;;;;;;;;;;;;;;;;2202200;59;3029;-22
2023/10/31 09:22:08;;;;;;;;;;;;;;;;;;2198877;59;4029;-22
2023/10/31 09:24:40;;;;;;;;;;;;;;;;;;2203882;59;2187;-21
2023/10/31 09:27:10;;;;;;;;;;;;;;;;;;2202609;59;2644;-21
2023/10/31 09:29:40;;;;;;;;;;;;;;;;;;2204277;59;2959;-21
2023/10/31 09:32:11;;;;;;;;;;;;;;;;;;2203639;59;2626;-21
2023/10/31 09:34:41;;;;;;;;;;;;;;;;;;2204569;59;2744;-22
2023/10/31 09:37:11;;;;;;;;;;;;;;;;;;2203037;67;2791;-23
2023/10/31 09:39:41;;;;;;;;;;;;;;;;;;2199959;59;3690;-20
2023/10/31 09:42:12;;;;;;;;;;;;;;;;;;2203238;59;2921;-21
2023/10/31 09:44:42;;;;;;;;;;;;;;;;;;2200495;59;4217;-23
2023/10/31 09:47:12;;;;;;;;;;;;;;;;;;2199198;59;3471;-21
2023/10/31 09:49:43;;;;;;;;;;;;;;;;;;2203433;59;3045;-22
2023/10/31 09:52:13;;;;;;;;;;;;;;;;;;2198489;59;3800;-22
2023/10/31 09:54:44;;;;;;;;;;;;;;;;;;2200206;59;3294;-23
2023/10/31 09:57:14;;;;;;;;;;;;;;;;;;2202089;67;3882;-23
2023/10/31 09:59:45;;;;;;;;;;;;;;;;;;2198776;67;2368;-23
2023/10/31 10:02:15;;;;;;;;;;;;;;;;;;2202181;59;2571;-20
2023/10/31 10:04:47;;;;;;;;;;;;;;;;;;2198612;59;2602;-20
2023/10/31 10:07:18;;;;;;;;;;;;;;;;;;2201173;67;3635;-21
2023/10/31 10:09:49;;;;;;;;;;;;;;;;;;2200403;59;3038;-21
2023/10/31 10:12:19;;;;;;;;;;;;;;;;;;2201814;67;2615;-21
2023/10/31 10:14:50;;;;;;;;;;;;;;;;;;2202590;67;3972;-23
2023/10/31 10:17:21;;;;;;;;;;;;;;;;;;2195554;67;3971;-20
2023/10/31 10:20:10;;;;;;;;;;;;;;;;;;2199629;67;2968;-21
2023/10/31 10:22:44;;;;;;;;;;;;;;;;;;2199383;59;3078;-21
2023/10/31 10:25:18;;;;;;;;;;;;;;;;;;2198226;63;4230;-21
2023/10/31 10:27:48;;;;;;;;;;;;;;;;;;2202968;59;2361;-20
2023/10/31 10:30:18;;;;;;;;;;;;;;;;;;2201758;67;4640;-21
2023/10/31 10:32:49;;;;;;;;;;;;;;;;;;2198877;59;3886;-20
2023/10/31 10:35:19;;;;;;;;;;;;;;;;;;2201921;67;3841;-20
2023/10/31 10:37:51;;;;;;;;;;;;;;;;;;2202369;59;2630;-21
2023/10/31 10:40:22;;;;;;;;;;;;;;;;;;2202108;59;3194;-20
2023/10/31 10:42:57;;;;;;;;;;;;;;;;;;2197815;59;3868;-20
2023/10/31 10:45:28;;;;;;;;;;;;;;;;;;2202785;59;3861;-21
2023/10/31 10:48:01;;;;;;;;;;;;;;;;;;2202151;67;2887;-21
2023/10/31 10:50:34;;;;;;;;;;;;;;;;;;2198513;67;2474;-20
2023/10/31 10:53:13;;;;;;;;;;;;;;;;;;2201663;67;2519;-20
2023/10/31 10:55:51;;;;;;;;;;;;;;;;;;2203094;59;3829;-20
2023/10/31 10:58:26;;;;;;;;;;;;;;;;;;2201392;67;2809;-20
2023/10/31 11:00:58;;;;;;;;;;;;;;;;;;2198310;67;3688;-21
2023/10/31 11:03:29;;;;;;;;;;;;;;;;;;2201971;59;2848;-21
2023/10/31 11:06:00;;;;;;;;;;;;;;;;;;2202727;67;2515;-21
2023/10/31 11:08:30;;;;;;;;;;;;;;;;;;2202084;67;2612;-21
2023/10/31 11:11:01;;;;;;;;;;;;;;;;;;2201908;59;2892;-20
2023/10/31 11:13:31;;;;;;;;;;;;;;;;;;2202126;67;3651;-20
2023/10/31 11:16:04;;;;;;;;;;;;;;;;;;2202619;59;3786;-21
2023/10/31 11:18:35;;;;;;;;;;;;;;;;;;2203861;59;2561;-20
2023/10/31 11:21:05;;;;;;;;;;;;;;;;;;2198501;67;2985;-21
2023/10/31 11:23:35;;;;;;;;;;;;;;;;;;2203320;59;3790;-20
2023/10/31 11:26:09;;;;;;;;;;;;;;;;;;2198873;59;2981;-21
2023/10/31 11:28:40;;;;;;;;;;;;;;;;;;2196120;59;4112;-20
2023/10/31 11:31:10;;;;;;;;;;;;;;;;;;2200746;59;2564;-21
2023/10/31 11:33:42;;;;;;;;;;;;;;;;;;2201944;59;2665;-20
2023/10/31 11:36:13;;;;;;;;;;;;;;;;;;2202065;67;3708;-21
2023/10/31 11:38:44;;;;;;;;;;;;;;;;;;2197117;59;3219;-21
2023/10/31 11:41:14;;;;;;;;;;;;;;;;;;2201696;59;3851;-21
2023/10/31 11:43:55;;;;;;;;;;;;;;;;;;2199064;59;3593;-21
2023/10/31 11:46:25;;;;;;;;;;;;;;;;;;2198726;59;3602;-21
2023/10/31 11:48:56;;;;;;;;;;;;;;;;;;2199575;67;2753;-21
2023/10/31 11:51:26;;;;;;;;;;;;;;;;;;2204100;59;2733;-24
2023/10/31 11:53:57;;;;;;;;;;;;;;;;;;2202204;59;2314;-24
2023/10/31 11:56:27;;;;;;;;;;;;;;;;;;2203548;67;3992;-24
2023/10/31 11:59:04;;;;;;;;;;;;;;;;;;2204718;59;2907;-24
2023/10/31 12:01:43;;;;;;;;;;;;;;;;;;2205298;67;2495;-24
2023/10/31 12:04:23;;;;;;;;;;;;;;;;;;2205065;67;2754;-24
2023/10/31 12:06:57;;;;;;;;;;;;;;;;;;2206898;59;2571;-24
2023/10/31 12:09:27;;;;;;;;;;;;;;;;;;2197873;67;3817;-24
2023/10/31 12:11:57;;;;;;;;;;;;;;;;;;2201468;59;2944;-24
2023/10/31 12:14:28;;;;;;;;;;;;;;;;;;2201957;59;3689;-24
2023/10/31 12:17:03;;;;;;;;;;;;;;;;;;2200612;67;3646;-24
2023/10/31 12:19:34;;;;;;;;;;;;;;;;;;2202804;59;3425;-24
2023/10/31 12:22:12;;;;;;;;;;;;;;;;;;2197427;59;2843;-24
2023/10/31 12:24:42;;;;;;;;;;;;;;;;;;2198782;59;2546;-24
2023/10/31 12:27:12;;;;;;;;;;;;;;;;;;2202449;59;2742;-24
2023/10/31 12:29:44;;;;;;;;;;;;;;;;;;2204014;59;2564;-24
2023/10/31 12:32:15;;;;;;;;;;;;;;;;;;2201772;59;2342;-24
2023/10/31 12:34:46;;;;;;;;;;;;;;;;;;2201512;67;2919;-23
2023/10/31 12:37:17;;;;;;;;;;;;;;;;;;2200330;59;2867;-23
2023/10/31 12:39:49;;;;;;;;;;;;;;;;;;2203531;59;2611;-23
2023/10/31 12:42:20;;;;;;;;;;;;;;;;;;2202403;59;3062;-23
2023/10/31 12:44:51;;;;;;;;;;;;;;;;;;2201003;59;4037;-23
2023/10/31 12:47:22;;;;;;;;;;;;;;;;;;2199574;67;3788;-23
2023/10/31 12:50:10;;;;;;;;;;;;;;;;;;2204655;59;2570;-23
2023/10/31 12:52:47;;;;;;;;;;;;;;;;;;2204553;67;3801;-23
2023/10/31 12:55:21;;;;;;;;;;;;;;;;;;2202138;67;3844;-23
2023/10/31 12:57:51;;;;;;;;;;;;;;;;;;2204442;59;1522;-23
2023/10/31 13:00:26;;;;;;;;;;;;;;;;;;2195901;59;3545;-23
2023/10/31 13:03:00;;;;;;;;;;;;;;;;;;2202870;59;2314;-23
2023/10/31 13:05:31;;;;;;;;;;;;;;;;;;2202536;67;2716;-23
2023/10/31 13:08:04;;;;;;;;;;;;;;;;;;2200970;67;4122;-23
2023/10/31 13:10:34;;;;;;;;;;;;;;;;;;2201284;59;3824;-23
2023/10/31 13:13:04;;;;;;;;;;;;;;;;;;2200073;59;2877;-22
2023/10/31 13:15:36;;;;;;;;;;;;;;;;;;2201254;59;2365;-23
2023/10/31 13:18:07;;;;;;;;;;;;;;;;;;2200598;67;2685;-23
2023/10/31 13:20:37;;;;;;;;;;;;;;;;;;2200292;67;2761;-23
2023/10/31 13:23:07;;;;;;;;;;;;;;;;;;2200709;67;3241;-23
2023/10/31 13:25:37;;;;;;;;;;;;;;;;;;2203537;59;3679;-23
2023/10/31 13:28:11;;;;;;;;;;;;;;;;;;2203413;59;2562;-22
2023/10/31 13:30:42;;;;;;;;;;;;;;;;;;2200782;59;2471;-23
2023/10/31 13:33:12;;;;;;;;;;;;;;;;;;2205533;59;4105;-23
2023/10/31 13:35:43;;;;;;;;;;;;;;;;;;2203099;59;4114;-23
2023/10/31 13:38:13;;;;;;;;;;;;;;;;;;2205102;59;2603;-23
2023/10/31 13:40:43;;;;;;;;;;;;;;;;;;2202396;59;2496;-23
2023/10/31 13:43:13;;;;;;;;;;;;;;;;;;2202005;59;2798;-23
2023/10/31 13:45:44;;;;;;;;;;;;;;;;;;2199861;59;3514;-23
2023/10/31 13:48:14;;;;;;;;;;;;;;;;;;2202337;59;2852;-23
2023/10/31 13:50:44;;;;;;;;;;;;;;;;;;2203701;59;2844;-23
2023/10/31 13:53:15;;;;;;;;;;;;;;;;;;2200467;59;3746;-23
2023/10/31 13:55:45;;;;;;;;;;;;;;;;;;2198306;67;3428;-24
2023/10/31 13:58:16;;;;;;;;;;;;;;;;;;2197707;59;3117;-23
2023/10/31 14:00:46;;;;;;;;;;;;;;;;;;2202023;59;3482;-23
2023/10/31 14:03:16;;;;;;;;;;;;;;;;;;2199804;59;2262;-23
2023/10/31 14:05:46;;;;;;;;;;;;;;;;;;2200625;67;4235;-23
2023/10/31 14:08:17;;;;;;;;;;;;;;;;;;2202429;67;2853;-23
2023/10/31 14:10:48;;;;;;;;;;;;;;;;;;2204046;67;3854;-23
2023/10/31 14:13:20;;;;;;;;;;;;;;;;;;2199074;67;3791;-22
2023/10/31 14:15:50;;;;;;;;;;;;;;;;;;2203223;67;3641;-22
2023/10/31 14:18:20;;;;;;;;;;;;;;;;;;2199034;59;3370;-22
2023/10/31 14:20:51;;;;;;;;;;;;;;;;;;2202605;59;4100;-23
2023/10/31 14:23:22;;;;;;;;;;;;;;;;;;2202549;59;2713;-23
2023/10/31 14:25:52;;;;;;;;;;;;;;;;;;2203306;59;4618;-22
2023/10/31 14:28:22;;;;;;;;;;;;;;;;;;2199107;67;2854;-22
2023/10/31 14:30:53;;;;;;;;;;;;;;;;;;2203909;59;2539;-23
2023/10/31 14:33:24;;;;;;;;;;;;;;;;;;2204028;67;2415;-23
2023/10/31 14:35:54;;;;;;;;;;;;;;;;;;2203706;67;2956;-23
2023/10/31 14:38:24;;;;;;;;;;;;;;;;;;2198934;59;5347;-22
2023/10/31 14:40:54;;;;;;;;;;;;;;;;;;2199344;59;2925;-23
2023/10/31 14:43:25;;;;;;;;;;;;;;;;;;2198646;59;2892;-23
2023/10/31 14:45:55;;;;;;;;;;;;;;;;;;2203128;59;1744;-23
2023/10/31 14:48:25;;;;;;;;;;;;;;;;;;2203671;59;2679;-23
2023/10/31 14:50:57;;;;;;;;;;;;;;;;;;2203650;59;3639;-23
2023/10/31 14:53:27;;;;;;;;;;;;;;;;;;2199233;59;3109;-23
2023/10/31 14:55:57;;;;;;;;;;;;;;;;;;2203084;59;4092;-23
2023/10/31 14:58:28;;;;;;;;;;;;;;;;;;2197887;59;4386;-23
2023/10/31 15:00:58;;;;;;;;;;;;;;;;;;2202857;67;3899;-23
2023/10/31 15:03:28;;;;;;;;;;;;;;;;;;2201356;59;3334;-23
2023/10/31 15:05:59;;;;;;;;;;;;;;;;;;2200012;67;4172;-23
2023/10/31 15:08:29;;;;;;;;;;;;;;;;;;2197596;59;4136;-24
2023/10/31 15:10:59;;;;;;;;;;;;;;;;;;2201641;67;3728;-23
2023/10/31 15:13:30;;;;;;;;;;;;;;;;;;2195896;67;2641;-25
2023/10/31 15:16:00;;;;;;;;;;;;;;;;;;2202185;67;3159;-24
2023/10/31 15:18:30;;;;;;;;;;;;;;;;;;2200853;59;3524;-24
2023/10/31 15:21:01;;;;;;;;;;;;;;;;;;2200239;67;3382;-24
2023/10/31 15:23:31;;;;;;;;;;;;;;;;;;2203512;59;2664;-24
2023/10/31 15:26:01;;;;;;;;;;;;;;;;;;2201011;59;4122;-24
2023/10/31 15:28:32;;;;;;;;;;;;;;;;;;2203207;59;3494;-24
2023/10/31 15:31:02;;;;;;;;;;;;;;;;;;2201396;59;2456;-24
2023/10/31 15:33:32;;;;;;;;;;;;;;;;;;2202983;59;2715;-24
2023/10/31 15:36:03;;;;;;;;;;;;;;;;;;2203620;59;3004;-24
2023/10/31 15:38:33;;;;;;;;;;;;;;;;;;2202638;59;1979;-24
2023/10/31 15:41:03;;;;;;;;;;;;;;;;;;2204206;59;2616;-24
2023/10/31 15:43:34;;;;;;;;;;;;;;;;;;2201882;59;3640;-24
2023/10/31 15:46:05;;;;;;;;;;;;;;;;;;2200045;67;2575;-24
2023/10/31 15:48:36;;;;;;;;;;;;;;;;;;2202542;67;2734;-24
2023/10/31 15:51:06;;;;;;;;;;;;;;;;;;2204094;59;2967;-24
2023/10/31 15:53:37;;;;;;;;;;;;;;;;;;2201540;67;4181;-24
2023/10/31 15:56:09;;;;;;;;;;;;;;;;;;2203620;59;4109;-24
2023/10/31 15:58:40;;;;;;;;;;;;;;;;;;2203073;67;3674;-24
2023/10/31 16:01:10;;;;;;;;;;;;;;;;;;2203356;67;4080;-24
2023/10/31 16:03:40;;;;;;;;;;;;;;;;;;2202856;59;3516;-24
2023/10/31 16:06:11;;;;;;;;;;;;;;;;;;2203695;59;3501;-24
2023/10/31 16:08:42;;;;;;;;;;;;;;;;;;2202129;59;2554;-24
2023/10/31 16:11:12;;;;;;;;;;;;;;;;;;2199909;59;2605;-24
2023/10/31 16:13:43;;;;;;;;;;;;;;;;;;2201564;59;3304;-24
2023/10/31 16:16:14;;;;;;;;;;;;;;;;;;2200146;67;2840;-24
2023/10/31 16:18:44;;;;;;;;;;;;;;;;;;2203015;59;3949;-24
2023/10/31 16:21:18;;;;;;;;;;;;;;;;;;2198230;67;2661;-24
2023/10/31 16:23:52;;;;;;;;;;;;;;;;;;2202598;67;3223;-24
2023/10/31 16:26:22;;;;;;;;;;;;;;;;;;2203225;59;2570;-24
2023/10/31 16:28:53;;;;;;;;;;;;;;;;;;2197393;59;2425;-24
2023/10/31 16:31:23;;;;;;;;;;;;;;;;;;2199529;67;2951;-24
2023/10/31 16:33:53;;;;;;;;;;;;;;;;;;2197930;59;2831;-24
2023/10/31 16:36:24;;;;;;;;;;;;;;;;;;2196991;67;2917;-24
2023/10/31 16:38:55;;;;;;;;;;;;;;;;;;2204115;59;2185;-24
2023/10/31 16:41:25;;;;;;;;;;;;;;;;;;2199867;59;2773;-23
2023/10/31 16:43:56;;;;;;;;;;;;;;;;;;2200361;59;3469;-23
2023/10/31 16:46:26;;;;;;;;;;;;;;;;;;2202527;67;3511;-23
2023/10/31 16:48:56;;;;;;;;;;;;;;;;;;2201376;67;2704;-22
2023/10/31 16:51:27;;;;;;;;;;;;;;;;;;2199875;59;3488;-22
2023/10/31 16:53:58;;;;;;;;;;;;;;;;;;2204714;67;4055;-22
2023/10/31 16:56:28;;;;;;;;;;;;;;;;;;2202941;59;4276;-22
2023/10/31 16:58:58;;;;;;;;;;;;;;;;;;2204284;67;3741;-22
2023/10/31 17:01:30;;;;;;;;;;;;;;;;;;2202074;59;2883;-22
2023/10/31 17:04:00;;;;;;;;;;;;;;;;;;2200938;59;2712;-22
2023/10/31 17:06:31;;;;;;;;;;;;;;;;;;2200589;59;3753;-23
2023/10/31 17:09:01;;;;;;;;;;;;;;;;;;2201126;59;3381;-23
2023/10/31 17:11:31;;;;;;;;;;;;;;;;;;2202957;59;2604;-23
2023/10/31 17:14:02;;;;;;;;;;;;;;;;;;2199901;59;3151;-23
2023/10/31 17:16:33;;;;;;;;;;;;;;;;;;2200702;59;2787;-23
2023/10/31 17:19:03;;;;;;;;;;;;;;;;;;2202486;67;4761;-23
2023/10/31 17:21:33;;;;;;;;;;;;;;;;;;2200726;67;2848;-23
2023/10/31 17:24:03;;;;;;;;;;;;;;;;;;2199083;59;3135;-23
2023/10/31 17:26:34;;;;;;;;;;;;;;;;;;2202083;59;2594;-23